sensor_id;sensor_type;location;lat;lon;timestamp;P1;durP1;ratioP1;P2;durP2;ratioP2
70985;SDS011;58645;43.068;25.610;2022-07-29T00:08:10;13.18;;;10.20;;
70985;SDS011;58645;43.068;25.610;2022-07-29T00:10:36;13.10;;;9.85;;
70985;SDS011;58645;43.068;25.610;2022-07-29T00:13:22;22.38;;;16.52;;
70985;SDS011;58645;43.068;25.610;2022-07-29T00:19:57;18.08;;;13.45;;
70985;SDS011;58645;43.068;25.610;2022-07-29T00:22:23;23.70;;;15.20;;
70985;SDS011;58645;43.068;25.610;2022-07-29T00:24:49;21.75;;;12.32;;
70985;SDS011;58645;43.068;25.610;2022-07-29T00:27:15;17.08;;;11.10;;
70985;SDS011;58645;43.068;25.610;2022-07-29T01:08:22;10.05;;;7.43;;
70985;SDS011;58645;43.068;25.610;2022-07-29T01:10:48;13.55;;;7.93;;
70985;SDS011;58645;43.068;25.610;2022-07-29T01:13:15;11.27;;;7.72;;
70985;SDS011;58645;43.068;25.610;2022-07-29T01:15:53;14.15;;;7.82;;
70985;SDS011;58645;43.068;25.610;2022-07-29T01:18:32;11.95;;;7.78;;
70985;SDS011;58645;43.068;25.610;2022-07-29T01:24:11;8.95;;;7.22;;
70985;SDS011;58645;43.068;25.610;2022-07-29T01:26:52;8.85;;;7.05;;
70985;SDS011;58645;43.068;25.610;2022-07-29T01:32:21;11.98;;;8.20;;
70985;SDS011;58645;43.068;25.610;2022-07-29T01:37:47;13.15;;;8.43;;
70985;SDS011;58645;43.068;25.610;2022-07-29T01:43:00;13.05;;;9.10;;
70985;SDS011;58645;43.068;25.610;2022-07-29T01:45:41;12.13;;;8.02;;
70985;SDS011;58645;43.068;25.610;2022-07-29T01:48:15;14.00;;;8.20;;
70985;SDS011;58645;43.068;25.610;2022-07-29T01:50:49;10.98;;;7.82;;
70985;SDS011;58645;43.068;25.610;2022-07-29T01:54:01;12.10;;;7.80;;
70985;SDS011;58645;43.068;25.610;2022-07-29T01:56:11;13.63;;;8.45;;
70985;SDS011;58645;43.068;25.610;2022-07-29T01:58:38;12.60;;;8.73;;
70985;SDS011;58645;43.068;25.610;2022-07-29T02:01:08;14.80;;;11.10;;
70985;SDS011;58645;43.068;25.610;2022-07-29T02:03:36;17.02;;;12.40;;
70985;SDS011;58645;43.068;25.610;2022-07-29T02:06:04;16.80;;;12.65;;
70985;SDS011;58645;43.068;25.610;2022-07-29T02:08:32;20.67;;;14.52;;
70985;SDS011;58645;43.068;25.610;2022-07-29T02:10:59;29.58;;;20.52;;
70985;SDS011;58645;43.068;25.610;2022-07-29T02:13:27;28.55;;;20.30;;
70985;SDS011;58645;43.068;25.610;2022-07-29T02:15:55;27.70;;;21.10;;
70985;SDS011;58645;43.068;25.610;2022-07-29T02:18:23;30.05;;;22.90;;
70985;SDS011;58645;43.068;25.610;2022-07-29T02:20:52;15.75;;;11.65;;
70985;SDS011;58645;43.068;25.610;2022-07-29T02:23:22;27.10;;;18.80;;
70985;SDS011;58645;43.068;25.610;2022-07-29T02:25:49;18.13;;;11.88;;
70985;SDS011;58645;43.068;25.610;2022-07-29T02:28:21;17.23;;;12.85;;
70985;SDS011;58645;43.068;25.610;2022-07-29T02:30:51;15.93;;;10.98;;
70985;SDS011;58645;43.068;25.610;2022-07-29T02:33:18;17.25;;;10.68;;
70985;SDS011;58645;43.068;25.610;2022-07-29T02:35:46;14.70;;;9.68;;
70985;SDS011;58645;43.068;25.610;2022-07-29T02:38:14;22.88;;;14.02;;
70985;SDS011;58645;43.068;25.610;2022-07-29T02:41:04;19.35;;;13.38;;
70985;SDS011;58645;43.068;25.610;2022-07-29T02:43:33;17.73;;;11.30;;
70985;SDS011;58645;43.068;25.610;2022-07-29T02:46:00;18.67;;;11.38;;
70985;SDS011;58645;43.068;25.610;2022-07-29T02:49:13;14.13;;;10.10;;
70985;SDS011;58645;43.068;25.610;2022-07-29T02:51:41;19.30;;;11.70;;
70985;SDS011;58645;43.068;25.610;2022-07-29T02:54:10;15.18;;;10.18;;
70985;SDS011;58645;43.068;25.610;2022-07-29T02:56:40;12.35;;;8.25;;
70985;SDS011;58645;43.068;25.610;2022-07-29T02:59:09;11.98;;;7.82;;
70985;SDS011;58645;43.068;25.610;2022-07-29T03:01:37;13.43;;;6.72;;
70985;SDS011;58645;43.068;25.610;2022-07-29T03:04:07;15.43;;;9.23;;
70985;SDS011;58645;43.068;25.610;2022-07-29T03:06:35;12.23;;;8.95;;
70985;SDS011;58645;43.068;25.610;2022-07-29T03:09:02;12.45;;;8.48;;
70985;SDS011;58645;43.068;25.610;2022-07-29T03:11:29;11.50;;;8.18;;
70985;SDS011;58645;43.068;25.610;2022-07-29T03:16:21;14.02;;;8.68;;
70985;SDS011;58645;43.068;25.610;2022-07-29T03:18:48;13.93;;;7.75;;
70985;SDS011;58645;43.068;25.610;2022-07-29T03:21:15;13.32;;;8.02;;
70985;SDS011;58645;43.068;25.610;2022-07-29T03:23:44;11.70;;;8.32;;
70985;SDS011;58645;43.068;25.610;2022-07-29T03:26:10;24.45;;;15.10;;
70985;SDS011;58645;43.068;25.610;2022-07-29T03:28:37;28.67;;;17.95;;
70985;SDS011;58645;43.068;25.610;2022-07-29T03:31:03;24.58;;;14.95;;
70985;SDS011;58645;43.068;25.610;2022-07-29T03:33:28;14.13;;;10.13;;
70985;SDS011;58645;43.068;25.610;2022-07-29T03:35:55;11.30;;;8.40;;
70985;SDS011;58645;43.068;25.610;2022-07-29T03:38:23;13.45;;;8.15;;
70985;SDS011;58645;43.068;25.610;2022-07-29T03:41:04;10.60;;;7.63;;
70985;SDS011;58645;43.068;25.610;2022-07-29T03:43:34;17.40;;;7.97;;
70985;SDS011;58645;43.068;25.610;2022-07-29T03:46:03;11.15;;;8.07;;
70985;SDS011;58645;43.068;25.610;2022-07-29T03:48:33;13.85;;;8.10;;
70985;SDS011;58645;43.068;25.610;2022-07-29T03:51:01;12.15;;;8.10;;
70985;SDS011;58645;43.068;25.610;2022-07-29T03:53:27;12.45;;;8.50;;
70985;SDS011;58645;43.068;25.610;2022-07-29T03:55:54;13.98;;;7.78;;
70985;SDS011;58645;43.068;25.610;2022-07-29T03:58:24;10.07;;;6.57;;
70985;SDS011;58645;43.068;25.610;2022-07-29T04:00:52;9.23;;;6.45;;
70985;SDS011;58645;43.068;25.610;2022-07-29T04:03:20;8.95;;;6.53;;
70985;SDS011;58645;43.068;25.610;2022-07-29T04:05:57;9.80;;;5.88;;
70985;SDS011;58645;43.068;25.610;2022-07-29T04:10:52;10.63;;;6.72;;
70985;SDS011;58645;43.068;25.610;2022-07-29T04:13:18;8.98;;;6.22;;
70985;SDS011;58645;43.068;25.610;2022-07-29T04:15:45;9.50;;;6.50;;
70985;SDS011;58645;43.068;25.610;2022-07-29T04:18:11;10.93;;;7.45;;
70985;SDS011;58645;43.068;25.610;2022-07-29T04:20:37;11.45;;;7.30;;
70985;SDS011;58645;43.068;25.610;2022-07-29T04:23:02;12.55;;;7.78;;
70985;SDS011;58645;43.068;25.610;2022-07-29T04:25:28;9.60;;;7.35;;
70985;SDS011;58645;43.068;25.610;2022-07-29T04:27:54;10.20;;;7.63;;
70985;SDS011;58645;43.068;25.610;2022-07-29T04:30:26;9.98;;;6.93;;
70985;SDS011;58645;43.068;25.610;2022-07-29T04:32:52;10.25;;;8.18;;
70985;SDS011;58645;43.068;25.610;2022-07-29T04:35:18;11.00;;;7.10;;
70985;SDS011;58645;43.068;25.610;2022-07-29T04:37:45;8.85;;;7.10;;
70985;SDS011;58645;43.068;25.610;2022-07-29T04:40:11;10.13;;;7.75;;
70985;SDS011;58645;43.068;25.610;2022-07-29T04:42:37;12.20;;;7.15;;
70985;SDS011;58645;43.068;25.610;2022-07-29T04:45:03;8.57;;;6.05;;
70985;SDS011;58645;43.068;25.610;2022-07-29T04:47:30;33.70;;;27.27;;
70985;SDS011;58645;43.068;25.610;2022-07-29T04:49:56;48.83;;;34.25;;
70985;SDS011;58645;43.068;25.610;2022-07-29T04:52:22;43.53;;;28.60;;
70985;SDS011;58645;43.068;25.610;2022-07-29T04:54:48;32.10;;;23.85;;
70985;SDS011;58645;43.068;25.610;2022-07-29T04:57:14;44.85;;;31.17;;
70985;SDS011;58645;43.068;25.610;2022-07-29T04:59:40;43.92;;;32.80;;
70985;SDS011;58645;43.068;25.610;2022-07-29T05:02:05;57.85;;;40.78;;
70985;SDS011;58645;43.068;25.610;2022-07-29T05:04:31;48.40;;;35.45;;
70985;SDS011;58645;43.068;25.610;2022-07-29T05:06:57;38.47;;;27.25;;
70985;SDS011;58645;43.068;25.610;2022-07-29T05:09:22;48.45;;;34.03;;
70985;SDS011;58645;43.068;25.610;2022-07-29T05:11:48;32.00;;;21.70;;
70985;SDS011;58645;43.068;25.610;2022-07-29T05:14:14;25.42;;;19.45;;
70985;SDS011;58645;43.068;25.610;2022-07-29T05:16:40;30.23;;;22.30;;
70985;SDS011;58645;43.068;25.610;2022-07-29T05:19:06;16.45;;;12.27;;
70985;SDS011;58645;43.068;25.610;2022-07-29T05:21:32;14.30;;;7.53;;
70985;SDS011;58645;43.068;25.610;2022-07-29T05:23:58;10.27;;;6.47;;
70985;SDS011;58645;43.068;25.610;2022-07-29T05:26:24;8.85;;;6.28;;
70985;SDS011;58645;43.068;25.610;2022-07-29T05:31:15;16.45;;;10.30;;
70985;SDS011;58645;43.068;25.610;2022-07-29T05:33:41;22.48;;;14.02;;
70985;SDS011;58645;43.068;25.610;2022-07-29T05:36:07;17.85;;;13.18;;
70985;SDS011;58645;43.068;25.610;2022-07-29T05:38:33;13.93;;;11.40;;
70985;SDS011;58645;43.068;25.610;2022-07-29T05:41:00;19.02;;;12.48;;
70985;SDS011;58645;43.068;25.610;2022-07-29T05:45:55;26.77;;;19.75;;
70985;SDS011;58645;43.068;25.610;2022-07-29T05:48:21;35.95;;;26.63;;
70985;SDS011;58645;43.068;25.610;2022-07-29T05:53:13;26.83;;;19.40;;
70985;SDS011;58645;43.068;25.610;2022-07-29T05:58:04;28.50;;;20.25;;
70985;SDS011;58645;43.068;25.610;2022-07-29T06:02:56;30.38;;;24.38;;
70985;SDS011;58645;43.068;25.610;2022-07-29T06:05:22;32.53;;;25.90;;
70985;SDS011;58645;43.068;25.610;2022-07-29T06:07:48;32.97;;;24.55;;
70985;SDS011;58645;43.068;25.610;2022-07-29T06:10:14;33.90;;;23.45;;
70985;SDS011;58645;43.068;25.610;2022-07-29T06:12:39;25.08;;;19.30;;
70985;SDS011;58645;43.068;25.610;2022-07-29T06:15:05;20.73;;;16.73;;
70985;SDS011;58645;43.068;25.610;2022-07-29T06:17:31;15.05;;;11.40;;
70985;SDS011;58645;43.068;25.610;2022-07-29T06:19:57;17.88;;;13.43;;
70985;SDS011;58645;43.068;25.610;2022-07-29T06:22:23;18.05;;;14.18;;
70985;SDS011;58645;43.068;25.610;2022-07-29T06:24:49;20.10;;;13.75;;
70985;SDS011;58645;43.068;25.610;2022-07-29T06:27:14;17.33;;;13.98;;
70985;SDS011;58645;43.068;25.610;2022-07-29T06:29:41;17.23;;;12.60;;
70985;SDS011;58645;43.068;25.610;2022-07-29T06:32:07;16.27;;;12.95;;
70985;SDS011;58645;43.068;25.610;2022-07-29T06:34:35;16.13;;;12.85;;
70985;SDS011;58645;43.068;25.610;2022-07-29T06:37:05;17.40;;;12.40;;
70985;SDS011;58645;43.068;25.610;2022-07-29T06:39:33;15.88;;;12.98;;
70985;SDS011;58645;43.068;25.610;2022-07-29T06:42:00;7.95;;;6.85;;
70985;SDS011;58645;43.068;25.610;2022-07-29T06:44:26;10.18;;;7.28;;
70985;SDS011;58645;43.068;25.610;2022-07-29T06:46:51;13.75;;;8.55;;
70985;SDS011;58645;43.068;25.610;2022-07-29T06:49:19;11.95;;;8.15;;
70985;SDS011;58645;43.068;25.610;2022-07-29T06:51:45;12.10;;;8.32;;
70985;SDS011;58645;43.068;25.610;2022-07-29T06:54:11;7.45;;;5.15;;
70985;SDS011;58645;43.068;25.610;2022-07-29T06:56:37;7.50;;;3.35;;
70985;SDS011;58645;43.068;25.610;2022-07-29T06:59:03;6.13;;;3.88;;
70985;SDS011;58645;43.068;25.610;2022-07-29T07:01:30;5.07;;;3.15;;
70985;SDS011;58645;43.068;25.610;2022-07-29T07:03:55;5.60;;;4.28;;
70985;SDS011;58645;43.068;25.610;2022-07-29T07:06:21;5.18;;;3.58;;
70985;SDS011;58645;43.068;25.610;2022-07-29T07:08:50;5.03;;;3.88;;
70985;SDS011;58645;43.068;25.610;2022-07-29T07:11:16;5.82;;;3.53;;
70985;SDS011;58645;43.068;25.610;2022-07-29T07:13:42;6.93;;;3.83;;
70985;SDS011;58645;43.068;25.610;2022-07-29T07:16:07;7.97;;;4.35;;
70985;SDS011;58645;43.068;25.610;2022-07-29T07:18:33;4.82;;;3.70;;
70985;SDS011;58645;43.068;25.610;2022-07-29T07:20:59;4.78;;;3.22;;
70985;SDS011;58645;43.068;25.610;2022-07-29T07:23:25;4.93;;;3.30;;
70985;SDS011;58645;43.068;25.610;2022-07-29T07:25:50;4.60;;;3.13;;
70985;SDS011;58645;43.068;25.610;2022-07-29T07:28:16;4.38;;;3.20;;
70985;SDS011;58645;43.068;25.610;2022-07-29T07:30:42;3.72;;;2.95;;
70985;SDS011;58645;43.068;25.610;2022-07-29T07:33:08;3.65;;;2.47;;
70985;SDS011;58645;43.068;25.610;2022-07-29T07:35:34;4.88;;;2.50;;
70985;SDS011;58645;43.068;25.610;2022-07-29T07:38:00;2.72;;;2.50;;
70985;SDS011;58645;43.068;25.610;2022-07-29T07:40:25;4.05;;;2.53;;
70985;SDS011;58645;43.068;25.610;2022-07-29T07:42:51;5.45;;;2.13;;
70985;SDS011;58645;43.068;25.610;2022-07-29T07:45:17;4.63;;;2.40;;
70985;SDS011;58645;43.068;25.610;2022-07-29T07:47:43;3.40;;;2.10;;
70985;SDS011;58645;43.068;25.610;2022-07-29T07:50:09;3.42;;;2.03;;
70985;SDS011;58645;43.068;25.610;2022-07-29T07:52:45;2.95;;;1.80;;
70985;SDS011;58645;43.068;25.610;2022-07-29T07:55:22;4.00;;;1.75;;
70985;SDS011;58645;43.068;25.610;2022-07-29T07:57:48;3.97;;;1.70;;
70985;SDS011;58645;43.068;25.610;2022-07-29T08:00:15;3.17;;;2.28;;
70985;SDS011;58645;43.068;25.610;2022-07-29T08:02:41;3.92;;;2.10;;
70985;SDS011;58645;43.068;25.610;2022-07-29T08:05:08;4.05;;;1.85;;
70985;SDS011;58645;43.068;25.610;2022-07-29T08:07:35;3.63;;;1.77;;
70985;SDS011;58645;43.068;25.610;2022-07-29T08:10:01;3.00;;;1.80;;
70985;SDS011;58645;43.068;25.610;2022-07-29T08:12:27;5.05;;;1.95;;
70985;SDS011;58645;43.068;25.610;2022-07-29T08:14:52;2.95;;;2.00;;
70985;SDS011;58645;43.068;25.610;2022-07-29T08:17:19;4.50;;;1.98;;
70985;SDS011;58645;43.068;25.610;2022-07-29T08:19:44;2.20;;;1.92;;
70985;SDS011;58645;43.068;25.610;2022-07-29T08:22:11;4.72;;;2.17;;
70985;SDS011;58645;43.068;25.610;2022-07-29T08:24:36;3.60;;;1.90;;
70985;SDS011;58645;43.068;25.610;2022-07-29T08:27:08;3.85;;;2.22;;
70985;SDS011;58645;43.068;25.610;2022-07-29T08:29:35;3.85;;;2.05;;
70985;SDS011;58645;43.068;25.610;2022-07-29T08:32:01;2.75;;;2.03;;
70985;SDS011;58645;43.068;25.610;2022-07-29T08:34:27;2.78;;;1.83;;
70985;SDS011;58645;43.068;25.610;2022-07-29T08:36:54;2.50;;;1.90;;
70985;SDS011;58645;43.068;25.610;2022-07-29T08:39:20;4.18;;;2.13;;
70985;SDS011;58645;43.068;25.610;2022-07-29T08:41:47;4.55;;;2.00;;
70985;SDS011;58645;43.068;25.610;2022-07-29T08:44:15;2.17;;;1.90;;
70985;SDS011;58645;43.068;25.610;2022-07-29T08:46:42;4.00;;;1.90;;
70985;SDS011;58645;43.068;25.610;2022-07-29T08:49:08;2.42;;;1.75;;
70985;SDS011;58645;43.068;25.610;2022-07-29T08:51:34;3.38;;;2.00;;
70985;SDS011;58645;43.068;25.610;2022-07-29T08:54:03;3.45;;;1.70;;
70985;SDS011;58645;43.068;25.610;2022-07-29T08:56:30;2.92;;;2.08;;
70985;SDS011;58645;43.068;25.610;2022-07-29T08:58:57;3.42;;;1.95;;
70985;SDS011;58645;43.068;25.610;2022-07-29T09:01:25;3.13;;;2.03;;
70985;SDS011;58645;43.068;25.610;2022-07-29T09:03:55;2.25;;;2.05;;
70985;SDS011;58645;43.068;25.610;2022-07-29T09:06:22;2.80;;;1.88;;
70985;SDS011;58645;43.068;25.610;2022-07-29T09:08:53;6.95;;;2.03;;
70985;SDS011;58645;43.068;25.610;2022-07-29T09:11:22;2.28;;;2.08;;
70985;SDS011;58645;43.068;25.610;2022-07-29T09:13:48;2.90;;;1.90;;
70985;SDS011;58645;43.068;25.610;2022-07-29T09:16:14;3.40;;;1.75;;
70985;SDS011;58645;43.068;25.610;2022-07-29T09:18:44;4.00;;;1.70;;
70985;SDS011;58645;43.068;25.610;2022-07-29T09:21:13;1.83;;;1.52;;
70985;SDS011;58645;43.068;25.610;2022-07-29T09:24:09;2.10;;;1.73;;
70985;SDS011;58645;43.068;25.610;2022-07-29T09:26:40;3.75;;;1.80;;
70985;SDS011;58645;43.068;25.610;2022-07-29T09:29:13;3.47;;;2.00;;
70985;SDS011;58645;43.068;25.610;2022-07-29T09:31:42;2.92;;;2.13;;
70985;SDS011;58645;43.068;25.610;2022-07-29T09:34:12;2.20;;;1.73;;
70985;SDS011;58645;43.068;25.610;2022-07-29T09:39:06;3.45;;;2.08;;
70985;SDS011;58645;43.068;25.610;2022-07-29T09:44:14;2.95;;;1.83;;
70985;SDS011;58645;43.068;25.610;2022-07-29T09:49:23;2.00;;;1.80;;
70985;SDS011;58645;43.068;25.610;2022-07-29T09:51:58;1.83;;;1.65;;
70985;SDS011;58645;43.068;25.610;2022-07-29T09:54:26;2.33;;;1.67;;
70985;SDS011;58645;43.068;25.610;2022-07-29T09:56:52;3.03;;;2.22;;
70985;SDS011;58645;43.068;25.610;2022-07-29T09:59:19;3.08;;;1.98;;
70985;SDS011;58645;43.068;25.610;2022-07-29T10:01:49;2.65;;;1.90;;
70985;SDS011;58645;43.068;25.610;2022-07-29T10:04:15;2.20;;;2.00;;
70985;SDS011;58645;43.068;25.610;2022-07-29T10:07:00;2.53;;;1.83;;
70985;SDS011;58645;43.068;25.610;2022-07-29T10:09:27;2.05;;;1.73;;
70985;SDS011;58645;43.068;25.610;2022-07-29T10:12:03;2.20;;;2.00;;
70985;SDS011;58645;43.068;25.610;2022-07-29T10:14:39;1.85;;;1.75;;
70985;SDS011;58645;43.068;25.610;2022-07-29T10:17:05;5.50;;;2.22;;
70985;SDS011;58645;43.068;25.610;2022-07-29T10:19:32;2.55;;;1.98;;
70985;SDS011;58645;43.068;25.610;2022-07-29T10:22:01;1.98;;;1.75;;
70985;SDS011;58645;43.068;25.610;2022-07-29T10:24:30;4.95;;;2.08;;
70985;SDS011;58645;43.068;25.610;2022-07-29T10:26:57;2.88;;;2.00;;
70985;SDS011;58645;43.068;25.610;2022-07-29T10:29:26;4.13;;;2.13;;
70985;SDS011;58645;43.068;25.610;2022-07-29T10:37:25;3.78;;;2.10;;
70985;SDS011;58645;43.068;25.610;2022-07-29T10:43:35;3.30;;;1.98;;
70985;SDS011;58645;43.068;25.610;2022-07-29T10:46:06;2.67;;;2.20;;
70985;SDS011;58645;43.068;25.610;2022-07-29T10:48:32;4.03;;;2.30;;
70985;SDS011;58645;43.068;25.610;2022-07-29T10:50:59;2.72;;;2.30;;
70985;SDS011;58645;43.068;25.610;2022-07-29T10:56:26;2.55;;;1.92;;
70985;SDS011;58645;43.068;25.610;2022-07-29T10:59:32;3.20;;;2.03;;
70985;SDS011;58645;43.068;25.610;2022-07-29T11:01:52;2.25;;;2.03;;
70985;SDS011;58645;43.068;25.610;2022-07-29T11:07:26;3.55;;;1.90;;
70985;SDS011;58645;43.068;25.610;2022-07-29T11:15:11;2.97;;;1.90;;
70985;SDS011;58645;43.068;25.610;2022-07-29T11:20:39;2.35;;;2.15;;
70985;SDS011;58645;43.068;25.610;2022-07-29T11:31:16;2.85;;;2.13;;
70985;SDS011;58645;43.068;25.610;2022-07-29T11:34:16;2.63;;;2.42;;
70985;SDS011;58645;43.068;25.610;2022-07-29T11:52:59;2.35;;;2.00;;
70985;SDS011;58645;43.068;25.610;2022-07-29T11:55:26;3.35;;;2.08;;
70985;SDS011;58645;43.068;25.610;2022-07-29T11:57:55;5.15;;;2.47;;
70985;SDS011;58645;43.068;25.610;2022-07-29T12:02:56;5.28;;;2.50;;
70985;SDS011;58645;43.068;25.610;2022-07-29T12:05:34;3.67;;;2.35;;
70985;SDS011;58645;43.068;25.610;2022-07-29T12:08:07;3.58;;;2.15;;
70985;SDS011;58645;43.068;25.610;2022-07-29T12:10:37;3.13;;;2.25;;
70985;SDS011;58645;43.068;25.610;2022-07-29T12:13:03;4.60;;;2.45;;
70985;SDS011;58645;43.068;25.610;2022-07-29T12:15:30;6.88;;;2.42;;
70985;SDS011;58645;43.068;25.610;2022-07-29T12:17:56;3.90;;;2.13;;
70985;SDS011;58645;43.068;25.610;2022-07-29T12:20:25;3.50;;;2.35;;
70985;SDS011;58645;43.068;25.610;2022-07-29T12:22:53;3.40;;;2.53;;
70985;SDS011;58645;43.068;25.610;2022-07-29T12:25:19;5.57;;;2.28;;
70985;SDS011;58645;43.068;25.610;2022-07-29T12:27:47;2.67;;;2.30;;
70985;SDS011;58645;43.068;25.610;2022-07-29T12:30:22;3.90;;;2.35;;
70985;SDS011;58645;43.068;25.610;2022-07-29T12:32:48;4.07;;;2.30;;
70985;SDS011;58645;43.068;25.610;2022-07-29T12:35:14;4.63;;;2.88;;
70985;SDS011;58645;43.068;25.610;2022-07-29T12:37:44;4.47;;;2.40;;
70985;SDS011;58645;43.068;25.610;2022-07-29T12:40:13;3.28;;;2.22;;
70985;SDS011;58645;43.068;25.610;2022-07-29T12:42:42;4.60;;;2.33;;
70985;SDS011;58645;43.068;25.610;2022-07-29T12:45:34;4.00;;;2.55;;
70985;SDS011;58645;43.068;25.610;2022-07-29T12:48:04;3.10;;;2.33;;
70985;SDS011;58645;43.068;25.610;2022-07-29T12:50:33;3.63;;;2.13;;
70985;SDS011;58645;43.068;25.610;2022-07-29T12:53:10;4.53;;;2.70;;
70985;SDS011;58645;43.068;25.610;2022-07-29T12:55:38;2.60;;;2.25;;
70985;SDS011;58645;43.068;25.610;2022-07-29T12:58:08;3.47;;;2.40;;
70985;SDS011;58645;43.068;25.610;2022-07-29T13:00:34;3.75;;;2.28;;
70985;SDS011;58645;43.068;25.610;2022-07-29T13:03:00;2.85;;;2.33;;
70985;SDS011;58645;43.068;25.610;2022-07-29T13:05:42;3.78;;;2.53;;
70985;SDS011;58645;43.068;25.610;2022-07-29T13:08:13;3.25;;;2.53;;
70985;SDS011;58645;43.068;25.610;2022-07-29T13:10:39;5.07;;;3.00;;
70985;SDS011;58645;43.068;25.610;2022-07-29T13:13:12;3.70;;;2.45;;
70985;SDS011;58645;43.068;25.610;2022-07-29T13:15:40;3.33;;;2.42;;
70985;SDS011;58645;43.068;25.610;2022-07-29T13:20:53;3.45;;;2.42;;
70985;SDS011;58645;43.068;25.610;2022-07-29T13:23:19;2.72;;;2.40;;
70985;SDS011;58645;43.068;25.610;2022-07-29T13:25:45;3.95;;;2.40;;
70985;SDS011;58645;43.068;25.610;2022-07-29T13:28:11;2.72;;;2.30;;
70985;SDS011;58645;43.068;25.610;2022-07-29T13:30:37;3.60;;;2.40;;
70985;SDS011;58645;43.068;25.610;2022-07-29T13:33:04;4.10;;;2.53;;
70985;SDS011;58645;43.068;25.610;2022-07-29T13:35:30;3.15;;;2.35;;
70985;SDS011;58645;43.068;25.610;2022-07-29T13:37:55;3.63;;;2.50;;
70985;SDS011;58645;43.068;25.610;2022-07-29T13:40:21;6.65;;;2.55;;
70985;SDS011;58645;43.068;25.610;2022-07-29T13:42:47;3.33;;;2.20;;
70985;SDS011;58645;43.068;25.610;2022-07-29T13:45:13;4.30;;;2.55;;
70985;SDS011;58645;43.068;25.610;2022-07-29T13:47:39;3.35;;;2.53;;
70985;SDS011;58645;43.068;25.610;2022-07-29T13:50:05;2.92;;;2.45;;
70985;SDS011;58645;43.068;25.610;2022-07-29T13:52:34;5.35;;;2.63;;
70985;SDS011;58645;43.068;25.610;2022-07-29T13:55:01;3.42;;;2.75;;
70985;SDS011;58645;43.068;25.610;2022-07-29T13:57:28;3.83;;;2.72;;
70985;SDS011;58645;43.068;25.610;2022-07-29T13:59:54;5.68;;;2.72;;
70985;SDS011;58645;43.068;25.610;2022-07-29T14:02:20;3.42;;;2.53;;
70985;SDS011;58645;43.068;25.610;2022-07-29T14:04:46;3.30;;;2.50;;
70985;SDS011;58645;43.068;25.610;2022-07-29T14:07:12;2.97;;;2.67;;
70985;SDS011;58645;43.068;25.610;2022-07-29T14:09:38;5.32;;;2.70;;
70985;SDS011;58645;43.068;25.610;2022-07-29T14:12:04;3.67;;;2.47;;
70985;SDS011;58645;43.068;25.610;2022-07-29T14:14:30;5.22;;;2.60;;
70985;SDS011;58645;43.068;25.610;2022-07-29T14:16:57;3.17;;;2.50;;
70985;SDS011;58645;43.068;25.610;2022-07-29T14:19:23;4.45;;;2.70;;
70985;SDS011;58645;43.068;25.610;2022-07-29T14:21:49;3.45;;;2.42;;
70985;SDS011;58645;43.068;25.610;2022-07-29T14:24:15;3.08;;;2.70;;
70985;SDS011;58645;43.068;25.610;2022-07-29T14:26:41;3.67;;;2.75;;
70985;SDS011;58645;43.068;25.610;2022-07-29T14:29:06;4.05;;;2.83;;
70985;SDS011;58645;43.068;25.610;2022-07-29T14:31:32;4.32;;;3.20;;
70985;SDS011;58645;43.068;25.610;2022-07-29T14:33:58;3.17;;;2.85;;
70985;SDS011;58645;43.068;25.610;2022-07-29T14:36:24;3.20;;;2.83;;
70985;SDS011;58645;43.068;25.610;2022-07-29T14:38:50;5.82;;;2.80;;
70985;SDS011;58645;43.068;25.610;2022-07-29T14:41:16;3.58;;;2.88;;
70985;SDS011;58645;43.068;25.610;2022-07-29T14:43:41;5.18;;;3.00;;
70985;SDS011;58645;43.068;25.610;2022-07-29T14:49:33;3.50;;;2.50;;
70985;SDS011;58645;43.068;25.610;2022-07-29T14:51:59;3.92;;;2.63;;
70985;SDS011;58645;43.068;25.610;2022-07-29T14:54:25;5.90;;;3.15;;
70985;SDS011;58645;43.068;25.610;2022-07-29T14:56:51;3.25;;;2.90;;
70985;SDS011;58645;43.068;25.610;2022-07-29T14:59:20;3.30;;;2.72;;
70985;SDS011;58645;43.068;25.610;2022-07-29T15:01:45;3.53;;;2.78;;
70985;SDS011;58645;43.068;25.610;2022-07-29T15:04:11;3.55;;;2.83;;
70985;SDS011;58645;43.068;25.610;2022-07-29T15:06:37;3.95;;;2.63;;
70985;SDS011;58645;43.068;25.610;2022-07-29T15:09:03;3.53;;;2.92;;
70985;SDS011;58645;43.068;25.610;2022-07-29T15:11:28;3.13;;;2.80;;
70985;SDS011;58645;43.068;25.610;2022-07-29T15:13:54;4.68;;;2.92;;
70985;SDS011;58645;43.068;25.610;2022-07-29T15:16:20;3.60;;;2.83;;
70985;SDS011;58645;43.068;25.610;2022-07-29T15:18:46;6.85;;;2.63;;
70985;SDS011;58645;43.068;25.610;2022-07-29T15:21:11;4.10;;;2.67;;
70985;SDS011;58645;43.068;25.610;2022-07-29T15:23:37;5.53;;;2.78;;
70985;SDS011;58645;43.068;25.610;2022-07-29T15:26:03;3.33;;;2.55;;
70985;SDS011;58645;43.068;25.610;2022-07-29T15:28:29;4.32;;;2.85;;
70985;SDS011;58645;43.068;25.610;2022-07-29T15:30:55;3.83;;;2.63;;
70985;SDS011;58645;43.068;25.610;2022-07-29T15:33:21;3.35;;;3.00;;
70985;SDS011;58645;43.068;25.610;2022-07-29T15:35:47;4.65;;;3.05;;
70985;SDS011;58645;43.068;25.610;2022-07-29T15:38:12;5.45;;;2.67;;
70985;SDS011;58645;43.068;25.610;2022-07-29T15:40:38;3.60;;;2.78;;
70985;SDS011;58645;43.068;25.610;2022-07-29T15:43:08;7.07;;;2.88;;
70985;SDS011;58645;43.068;25.610;2022-07-29T15:45:38;3.38;;;2.72;;
70985;SDS011;58645;43.068;25.610;2022-07-29T15:48:05;5.75;;;2.95;;
70985;SDS011;58645;43.068;25.610;2022-07-29T15:50:31;2.97;;;2.67;;
70985;SDS011;58645;43.068;25.610;2022-07-29T15:52:58;4.50;;;2.63;;
70985;SDS011;58645;43.068;25.610;2022-07-29T15:55:24;4.85;;;2.72;;
70985;SDS011;58645;43.068;25.610;2022-07-29T15:57:50;4.50;;;3.15;;
70985;SDS011;58645;43.068;25.610;2022-07-29T16:00:16;5.00;;;3.15;;
70985;SDS011;58645;43.068;25.610;2022-07-29T16:02:42;5.57;;;3.00;;
70985;SDS011;58645;43.068;25.610;2022-07-29T16:05:08;3.30;;;2.75;;
70985;SDS011;58645;43.068;25.610;2022-07-29T16:07:34;3.58;;;3.03;;
70985;SDS011;58645;43.068;25.610;2022-07-29T16:10:00;3.05;;;2.75;;
70985;SDS011;58645;43.068;25.610;2022-07-29T16:12:26;5.53;;;2.92;;
70985;SDS011;58645;43.068;25.610;2022-07-29T16:14:52;3.30;;;2.92;;
70985;SDS011;58645;43.068;25.610;2022-07-29T16:17:18;3.67;;;2.97;;
70985;SDS011;58645;43.068;25.610;2022-07-29T16:19:44;3.35;;;2.80;;
70985;SDS011;58645;43.068;25.610;2022-07-29T16:22:10;5.35;;;3.28;;
70985;SDS011;58645;43.068;25.610;2022-07-29T16:24:36;4.80;;;2.80;;
70985;SDS011;58645;43.068;25.610;2022-07-29T16:27:03;3.35;;;2.80;;
70985;SDS011;58645;43.068;25.610;2022-07-29T16:29:29;3.67;;;2.85;;
70985;SDS011;58645;43.068;25.610;2022-07-29T16:31:55;3.38;;;2.67;;
70985;SDS011;58645;43.068;25.610;2022-07-29T16:34:20;4.72;;;3.17;;
70985;SDS011;58645;43.068;25.610;2022-07-29T16:36:46;7.38;;;3.20;;
70985;SDS011;58645;43.068;25.610;2022-07-29T16:39:12;4.00;;;2.90;;
70985;SDS011;58645;43.068;25.610;2022-07-29T16:41:38;4.45;;;3.47;;
70985;SDS011;58645;43.068;25.610;2022-07-29T16:44:03;4.20;;;3.10;;
70985;SDS011;58645;43.068;25.610;2022-07-29T16:46:29;4.18;;;2.88;;
70985;SDS011;58645;43.068;25.610;2022-07-29T16:48:55;5.32;;;3.45;;
70985;SDS011;58645;43.068;25.610;2022-07-29T16:51:21;4.05;;;3.05;;
70985;SDS011;58645;43.068;25.610;2022-07-29T16:53:47;5.05;;;2.90;;
70985;SDS011;58645;43.068;25.610;2022-07-29T16:56:13;4.03;;;3.13;;